createdAt,value
2017-09-29T00:00:07.926Z,99.90
2017-09-29T00:02:33.889Z,99.90
2017-09-29T00:05:00.650Z,99.90
2017-09-29T00:07:27.414Z,99.90
2017-09-29T00:09:53.647Z,99.90
2017-09-29T00:12:20.099Z,99.90
2017-09-29T00:14:46.551Z,99.90
2017-09-29T00:17:15.926Z,99.90
2017-09-29T00:19:48.383Z,99.90
2017-09-29T00:22:27.175Z,99.90
2017-09-29T00:24:57.653Z,99.90
2017-09-29T00:27:28.083Z,99.90
2017-09-29T00:30:06.769Z,99.90
2017-09-29T00:32:32.804Z,99.90
2017-09-29T00:35:12.468Z,99.90
2017-09-29T00:37:46.051Z,99.90
2017-09-29T00:40:16.591Z,99.90
2017-09-29T00:42:51.205Z,99.90
2017-09-29T00:45:24.834Z,99.90
2017-09-29T00:47:53.698Z,99.90
2017-09-29T00:50:19.663Z,99.90
2017-09-29T00:52:45.720Z,99.90
2017-09-29T00:55:15.081Z,99.90
2017-09-29T00:57:41.804Z,99.90
2017-09-29T01:00:30.125Z,99.90
2017-09-29T01:02:59.878Z,99.90
2017-09-29T01:05:37.414Z,99.90
2017-09-29T01:08:10.009Z,99.90
2017-09-29T01:10:36.078Z,99.90
2017-09-29T01:13:05.877Z,99.90
2017-09-29T01:15:35.386Z,99.90
2017-09-29T01:18:01.342Z,99.90
2017-09-29T01:20:28.030Z,99.90
2017-09-29T01:22:56.096Z,99.90
2017-09-29T01:25:37.474Z,99.90
2017-09-29T01:28:19.085Z,99.90
2017-09-29T01:30:45.157Z,99.90
2017-09-29T01:33:24.206Z,99.90
2017-09-29T01:36:00.761Z,99.90
2017-09-29T01:38:31.123Z,99.90
2017-09-29T01:40:57.083Z,99.90
2017-09-29T01:43:23.018Z,99.90
2017-09-29T01:45:49.715Z,99.90
2017-09-29T01:48:15.731Z,99.90
2017-09-29T01:50:41.685Z,99.90
2017-09-29T01:53:07.641Z,99.90
2017-09-29T01:55:33.577Z,99.90
2017-09-29T01:58:00.322Z,99.90
2017-09-29T02:00:27.038Z,99.90
2017-09-29T02:02:53.038Z,99.90
2017-09-29T02:05:19.014Z,99.90
2017-09-29T02:07:45.006Z,99.90
2017-09-29T02:10:10.953Z,99.90
2017-09-29T02:12:36.891Z,99.90
2017-09-29T02:15:02.836Z,99.90
2017-09-29T02:17:30.545Z,99.90
2017-09-29T02:19:56.496Z,99.90
2017-09-29T02:22:22.437Z,99.90
2017-09-29T02:24:48.434Z,99.90
2017-09-29T02:27:14.400Z,99.90
2017-09-29T02:29:40.358Z,99.90
2017-09-29T02:32:07.047Z,99.90
2017-09-29T02:34:33.064Z,99.90
2017-09-29T02:36:59.019Z,99.90
2017-09-29T02:39:25.030Z,99.90
2017-09-29T02:41:51.006Z,99.90
2017-09-29T02:44:17.730Z,99.90
2017-09-29T02:46:43.686Z,99.90
2017-09-29T02:49:10.395Z,99.90
2017-09-29T02:51:36.394Z,99.90
2017-09-29T02:54:02.335Z,99.90
2017-09-29T02:56:30.382Z,99.90
2017-09-29T02:58:59.105Z,99.90
2017-09-29T03:01:27.629Z,99.90
2017-09-29T03:03:59.790Z,99.90
2017-09-29T03:06:25.725Z,99.90
2017-09-29T03:08:56.296Z,99.90
2017-09-29T03:11:22.251Z,99.90
2017-09-29T03:13:48.186Z,99.90
2017-09-29T03:16:14.141Z,99.90
2017-09-29T03:18:40.099Z,99.90
2017-09-29T03:21:06.094Z,99.90
2017-09-29T03:23:32.021Z,99.90
2017-09-29T03:25:58.736Z,99.90
2017-09-29T03:28:24.684Z,99.90
2017-09-29T03:30:50.611Z,99.90
2017-09-29T03:33:16.582Z,99.90
2017-09-29T03:35:42.554Z,99.90
2017-09-29T03:38:09.027Z,99.90
2017-09-29T03:40:35.760Z,99.90
2017-09-29T03:43:02.451Z,99.90
2017-09-29T03:45:28.390Z,99.90
2017-09-29T03:47:54.378Z,99.90
2017-09-29T03:50:22.609Z,99.90
2017-09-29T03:52:51.084Z,99.90
2017-09-29T03:55:17.886Z,99.90
2017-09-29T03:57:46.806Z,99.90
2017-09-29T04:00:12.760Z,99.90
2017-09-29T04:02:38.709Z,99.90
2017-09-29T04:05:08.181Z,99.90
2017-09-29T04:07:34.130Z,99.90
2017-09-29T04:10:00.104Z,99.90
2017-09-29T04:12:30.517Z,99.90
2017-09-29T04:14:56.450Z,99.90
2017-09-29T04:17:23.170Z,99.90
2017-09-29T04:19:49.133Z,99.90
2017-09-29T04:22:15.070Z,99.90
2017-09-29T04:24:41.030Z,99.90
2017-09-29T04:27:06.994Z,99.90
2017-09-29T04:29:32.958Z,99.90
2017-09-29T04:31:58.978Z,99.90
2017-09-29T04:34:24.910Z,99.90
2017-09-29T04:36:50.876Z,99.90
2017-09-29T04:39:16.825Z,99.90
2017-09-29T04:41:42.767Z,99.90
2017-09-29T04:44:08.709Z,99.90
2017-09-29T04:46:34.650Z,99.90
2017-09-29T04:49:00.658Z,99.90
2017-09-29T04:51:27.402Z,99.90
2017-09-29T04:53:54.105Z,99.90
2017-09-29T04:56:20.046Z,99.90
2017-09-29T04:58:45.985Z,99.90
2017-09-29T05:01:15.007Z,99.90
2017-09-29T05:03:41.697Z,99.90
2017-09-29T05:06:07.638Z,99.90
2017-09-29T05:08:33.597Z,99.90
2017-09-29T05:11:00.341Z,99.90
2017-09-29T05:13:27.109Z,99.90
2017-09-29T05:15:53.806Z,99.90
2017-09-29T05:18:19.837Z,99.90
2017-09-29T05:20:45.864Z,99.90
2017-09-29T05:23:11.824Z,99.90
2017-09-29T05:25:38.514Z,99.90
2017-09-29T05:28:04.526Z,99.90
2017-09-29T05:30:30.495Z,99.90
2017-09-29T05:32:56.462Z,99.90
2017-09-29T05:35:27.268Z,99.90
2017-09-29T05:37:53.220Z,99.90
2017-09-29T05:40:20.018Z,99.90
2017-09-29T05:42:45.954Z,99.90
2017-09-29T05:45:11.916Z,99.90
2017-09-29T05:47:38.182Z,99.90
2017-09-29T05:50:04.121Z,99.90
2017-09-29T05:52:30.053Z,99.90
2017-09-29T05:54:56.011Z,99.90
2017-09-29T05:57:21.994Z,99.90
2017-09-29T05:59:47.962Z,99.90
2017-09-29T06:02:13.905Z,99.90
2017-09-29T06:04:39.882Z,99.90
2017-09-29T06:07:05.833Z,99.90
2017-09-29T06:09:31.776Z,99.90
2017-09-29T06:11:57.770Z,99.90
2017-09-29T06:14:23.782Z,99.90
2017-09-29T06:16:50.687Z,99.90
2017-09-29T06:19:16.613Z,99.90
2017-09-29T06:21:42.554Z,99.90
2017-09-29T06:24:08.514Z,99.90
2017-09-29T06:26:35.185Z,99.90
2017-09-29T06:29:01.174Z,99.90
2017-09-29T06:31:27.905Z,99.90
2017-09-29T06:33:56.636Z,99.90
2017-09-29T06:36:22.676Z,99.90
2017-09-29T06:38:48.651Z,99.90
2017-09-29T06:41:14.723Z,99.90
2017-09-29T06:43:44.609Z,99.90
2017-09-29T06:46:12.603Z,99.90
2017-09-29T06:48:59.459Z,99.90
2017-09-29T06:51:30.683Z,99.90
2017-09-29T06:54:01.808Z,99.90
2017-09-29T06:56:31.409Z,99.90
2017-09-29T06:59:06.557Z,99.90
2017-09-29T07:01:38.198Z,99.90
2017-09-29T07:04:11.610Z,99.90
2017-09-29T07:06:37.559Z,99.90
2017-09-29T07:09:28.477Z,99.90
2017-09-29T07:11:54.429Z,99.90
2017-09-29T07:14:20.390Z,99.90
2017-09-29T07:16:46.425Z,99.90
2017-09-29T07:19:12.398Z,99.90
2017-09-29T07:24:37.686Z,99.90
2017-09-29T07:27:04.503Z,99.90
2017-09-29T07:29:34.760Z,99.90
2017-09-29T07:32:02.633Z,99.90
2017-09-29T07:34:28.582Z,99.90
2017-09-29T07:36:54.584Z,99.90
2017-09-29T07:39:20.590Z,99.90
2017-09-29T07:41:46.561Z,99.90
2017-09-29T07:44:12.548Z,99.90
2017-09-29T07:46:42.766Z,99.90
2017-09-29T07:49:15.188Z,99.90
2017-09-29T07:51:41.159Z,99.90
2017-09-29T07:54:07.843Z,99.90
2017-09-29T07:56:33.828Z,99.90
2017-09-29T07:59:00.660Z,99.90
2017-09-29T08:01:26.680Z,99.90
2017-09-29T08:03:55.696Z,99.90
2017-09-29T08:06:32.399Z,99.90
2017-09-29T08:08:58.797Z,99.90
2017-09-29T08:11:24.742Z,99.90
2017-09-29T08:13:51.465Z,99.90
2017-09-29T08:16:17.495Z,99.90
2017-09-29T08:18:43.567Z,99.90
2017-09-29T08:21:10.313Z,99.90
2017-09-29T08:23:36.291Z,99.90
2017-09-29T08:26:13.072Z,99.90
2017-09-29T08:28:39.097Z,99.90
2017-09-29T08:31:16.038Z,99.90
2017-09-29T08:33:48.113Z,99.90
2017-09-29T08:36:14.057Z,99.90
2017-09-29T08:38:43.762Z,99.90
2017-09-29T08:41:10.767Z,99.90
2017-09-29T08:43:41.074Z,99.90
2017-09-29T08:46:13.474Z,99.90
2017-09-29T08:48:40.146Z,99.90
2017-09-29T08:51:20.413Z,99.90
2017-09-29T08:53:54.813Z,99.90
2017-09-29T08:56:20.794Z,99.90
2017-09-29T08:58:46.833Z,99.90
2017-09-29T09:01:12.885Z,99.90
2017-09-29T09:03:39.569Z,99.90
2017-09-29T09:06:05.509Z,99.90
2017-09-29T09:08:31.445Z,99.90
2017-09-29T09:10:57.381Z,99.90
2017-09-29T09:13:26.803Z,99.90
2017-09-29T09:15:57.314Z,99.90
2017-09-29T09:18:23.369Z,99.90
2017-09-29T09:20:50.097Z,99.90
2017-09-29T09:23:16.053Z,99.90
2017-09-29T09:25:46.196Z,99.90
2017-09-29T09:28:12.146Z,99.90
2017-09-29T09:30:39.163Z,99.90
2017-09-29T09:33:05.138Z,99.90
2017-09-29T09:35:31.074Z,99.90
2017-09-29T09:37:57.028Z,99.90
2017-09-29T09:40:23.734Z,99.90
2017-09-29T09:42:51.417Z,99.90
2017-09-29T09:45:17.357Z,99.90
2017-09-29T09:47:43.288Z,99.90
2017-09-29T09:50:09.307Z,99.90
2017-09-29T09:52:35.373Z,99.90
2017-09-29T09:55:02.147Z,99.90
2017-09-29T09:57:28.184Z,99.90
2017-09-29T09:59:54.143Z,99.90
2017-09-29T10:02:20.076Z,99.90
2017-09-29T10:04:46.017Z,99.90
2017-09-29T10:07:12.895Z,99.90
2017-09-29T10:09:38.917Z,99.90
2017-09-29T10:12:04.878Z,99.80
2017-09-29T10:14:34.478Z,99.90
2017-09-29T10:17:02.509Z,98.00
2017-09-29T10:19:35.665Z,98.00
2017-09-29T10:22:07.531Z,97.90
2017-09-29T10:24:33.458Z,95.30
2017-09-29T10:26:59.562Z,93.70
2017-09-29T10:29:25.559Z,93.20
2017-09-29T10:31:59.072Z,91.80
2017-09-29T10:34:25.018Z,91.80
2017-09-29T10:36:51.030Z,90.80
2017-09-29T10:39:16.957Z,91.80
2017-09-29T10:41:49.734Z,91.90
2017-09-29T10:44:15.669Z,92.10
2017-09-29T10:46:41.645Z,93.10
2017-09-29T10:49:07.659Z,92.60
2017-09-29T10:51:36.816Z,90.90
2017-09-29T10:54:13.519Z,90.90
2017-09-29T10:56:45.022Z,91.10
2017-09-29T10:59:12.965Z,90.40
2017-09-29T11:01:45.618Z,90.60
2017-09-29T11:04:13.713Z,90.20
2017-09-29T11:06:42.851Z,90.60
2017-09-29T11:09:11.553Z,90.50
2017-09-29T11:11:39.301Z,89.30
2017-09-29T11:14:05.402Z,89.10
2017-09-29T11:16:42.129Z,87.80
2017-09-29T11:19:09.890Z,86.00
2017-09-29T11:21:36.670Z,87.70
2017-09-29T11:24:02.605Z,86.90
2017-09-29T11:26:28.549Z,84.60
2017-09-29T11:28:56.641Z,85.60
2017-09-29T11:31:22.673Z,87.10
2017-09-29T11:33:49.711Z,85.10
2017-09-29T11:36:15.771Z,81.30
2017-09-29T11:38:41.804Z,78.80
2017-09-29T11:41:10.621Z,80.30
2017-09-29T11:43:37.633Z,80.10
2017-09-29T11:46:09.945Z,80.00
2017-09-29T11:48:36.633Z,81.70
2017-09-29T11:51:02.575Z,82.40
2017-09-29T11:53:30.619Z,82.00
2017-09-29T11:56:00.682Z,82.40
2017-09-29T11:58:26.769Z,83.00
2017-09-29T12:00:53.735Z,81.30
2017-09-29T12:03:23.922Z,80.10
2017-09-29T12:06:03.372Z,80.20
2017-09-29T12:08:38.121Z,80.90
2017-09-29T12:11:04.078Z,81.70
2017-09-29T12:13:30.149Z,80.80
2017-09-29T12:15:57.250Z,82.00
2017-09-29T12:18:27.362Z,79.00
2017-09-29T12:21:00.511Z,78.40
2017-09-29T12:23:31.022Z,80.10
2017-09-29T12:26:05.574Z,81.30
2017-09-29T12:28:37.007Z,81.30
2017-09-29T12:31:21.613Z,83.30
2017-09-29T12:33:53.307Z,83.20
2017-09-29T12:36:20.077Z,85.20
2017-09-29T12:38:53.265Z,86.10
2017-09-29T12:41:28.826Z,85.80
2017-09-29T12:44:05.486Z,85.70
2017-09-29T12:46:33.266Z,87.10
2017-09-29T12:48:59.193Z,87.30
2017-09-29T12:51:27.288Z,87.40
2017-09-29T12:53:54.295Z,87.60
2017-09-29T12:56:26.793Z,87.60
2017-09-29T12:58:56.728Z,87.50
2017-09-29T13:01:29.505Z,86.10
2017-09-29T13:04:17.060Z,86.10
2017-09-29T13:06:51.760Z,85.80
2017-09-29T13:09:26.525Z,85.60
2017-09-29T13:12:01.017Z,84.50
2017-09-29T13:14:40.677Z,84.70
2017-09-29T13:17:07.516Z,85.70
2017-09-29T13:19:37.078Z,85.60
2017-09-29T13:22:16.962Z,81.60
2017-09-29T13:24:46.722Z,81.50
2017-09-29T13:27:15.529Z,81.20
2017-09-29T13:29:43.337Z,78.10
2017-09-29T13:32:10.345Z,77.30
2017-09-29T13:34:45.001Z,75.20
2017-09-29T13:37:16.602Z,74.90
2017-09-29T13:39:42.657Z,73.20
2017-09-29T13:42:12.470Z,68.30
2017-09-29T13:44:51.109Z,69.00
2017-09-29T13:47:19.058Z,69.00
2017-09-29T13:49:45.009Z,69.70
2017-09-29T13:52:11.742Z,68.80
2017-09-29T13:54:42.365Z,68.20
2017-09-29T13:57:15.904Z,65.90
2017-09-29T13:59:50.257Z,65.80
2017-09-29T14:02:24.013Z,63.80
2017-09-29T14:04:54.005Z,65.60
2017-09-29T14:07:30.457Z,64.60
2017-09-29T14:10:01.925Z,65.20
2017-09-29T14:12:34.314Z,66.00
2017-09-29T14:15:04.981Z,70.40
2017-09-29T14:17:41.830Z,69.70
2017-09-29T14:20:09.669Z,68.90
2017-09-29T14:22:36.651Z,68.80
2017-09-29T14:25:04.399Z,65.30
2017-09-29T14:27:30.436Z,65.30
2017-09-29T14:32:49.921Z,63.40
2017-09-29T14:35:21.363Z,64.60
2017-09-29T14:37:47.406Z,63.20
2017-09-29T14:40:38.274Z,62.80
2017-09-29T14:43:11.015Z,61.40
2017-09-29T14:45:38.038Z,61.80
2017-09-29T14:48:11.048Z,64.20
2017-09-29T14:50:40.970Z,64.60
2017-09-29T14:53:20.344Z,64.50
2017-09-29T14:55:54.224Z,68.00
2017-09-29T14:58:26.990Z,67.90
2017-09-29T15:00:57.399Z,70.20
2017-09-29T15:03:30.876Z,70.40
2017-09-29T15:06:07.690Z,70.30
2017-09-29T15:08:39.545Z,68.70
2017-09-29T15:11:09.090Z,68.70
2017-09-29T15:13:35.070Z,67.30
2017-09-29T15:16:14.961Z,67.30
2017-09-29T15:18:40.968Z,67.70
2017-09-29T15:21:18.052Z,69.30
2017-09-29T15:23:45.104Z,69.20
2017-09-29T15:26:16.032Z,65.00
2017-09-29T15:28:58.294Z,64.00
2017-09-29T15:31:32.868Z,64.00
2017-09-29T15:34:00.632Z,64.00
2017-09-29T15:36:37.625Z,64.00
2017-09-29T15:39:04.656Z,64.80
2017-09-29T15:41:34.782Z,65.60
2017-09-29T15:44:02.574Z,66.70
2017-09-29T15:46:28.614Z,66.70
2017-09-29T15:48:58.381Z,68.40
2017-09-29T15:51:48.852Z,69.30
2017-09-29T15:54:23.545Z,71.00
2017-09-29T15:56:56.029Z,72.70
2017-09-29T15:59:27.848Z,73.40
2017-09-29T16:01:58.938Z,75.20
2017-09-29T16:04:35.615Z,75.00
2017-09-29T16:07:03.346Z,78.70
2017-09-29T16:09:32.731Z,77.80
2017-09-29T16:12:13.148Z,78.70
2017-09-29T16:14:41.154Z,78.60
2017-09-29T16:17:17.283Z,79.40
2017-09-29T16:19:50.378Z,79.80
2017-09-29T16:22:20.353Z,80.70
2017-09-29T16:24:52.117Z,81.70
2017-09-29T16:27:30.574Z,81.50
2017-09-29T16:30:00.310Z,81.80
2017-09-29T16:32:26.278Z,83.10
2017-09-29T16:35:00.914Z,82.40
2017-09-29T16:37:30.838Z,83.90
2017-09-29T16:39:56.854Z,83.80
2017-09-29T16:42:22.910Z,83.20
2017-09-29T16:44:55.038Z,83.90
2017-09-29T16:47:34.725Z,84.40
2017-09-29T16:50:00.713Z,84.60
2017-09-29T16:52:38.378Z,84.90
2017-09-29T16:55:18.005Z,86.00
2017-09-29T16:57:45.007Z,85.60
2017-09-29T17:00:14.135Z,85.30
2017-09-29T17:02:57.823Z,84.90
2017-09-29T17:05:29.277Z,84.80
2017-09-29T17:07:56.025Z,86.00
2017-09-29T17:10:24.043Z,86.00
2017-09-29T17:12:50.013Z,86.50
2017-09-29T17:15:23.473Z,86.60
2017-09-29T17:17:50.171Z,86.80
2017-09-29T17:20:23.105Z,86.80
2017-09-29T17:22:52.517Z,87.50
2017-09-29T17:25:29.038Z,87.50
2017-09-29T17:28:05.607Z,87.40
2017-09-29T17:30:31.627Z,88.30
2017-09-29T17:33:04.498Z,88.00
2017-09-29T17:35:32.245Z,88.40
2017-09-29T17:37:58.193Z,88.20
2017-09-29T17:40:28.382Z,89.40
2017-09-29T17:42:54.382Z,89.20
2017-09-29T17:45:25.712Z,89.50
2017-09-29T17:47:53.457Z,90.40
2017-09-29T17:50:19.423Z,90.40
2017-09-29T17:53:04.199Z,90.60
2017-09-29T17:55:45.456Z,90.70
2017-09-29T17:58:18.262Z,90.70
2017-09-29T18:00:59.853Z,90.60
2017-09-29T18:03:26.162Z,91.10
2017-09-29T18:05:54.220Z,91.00
2017-09-29T18:08:31.010Z,91.30
2017-09-29T18:10:57.066Z,91.60
2017-09-29T18:13:24.123Z,91.90
2017-09-29T18:15:53.413Z,91.90
2017-09-29T18:18:31.757Z,92.40
2017-09-29T18:20:57.921Z,93.70
2017-09-29T18:23:24.689Z,94.90
2017-09-29T18:25:51.839Z,95.20
2017-09-29T18:28:22.213Z,95.40
2017-09-29T18:30:49.224Z,96.00
2017-09-29T18:33:27.370Z,96.50
2017-09-29T18:35:54.174Z,96.80
2017-09-29T18:38:21.208Z,97.10
2017-09-29T18:40:50.882Z,97.70
2017-09-29T18:43:23.018Z,97.70
2017-09-29T18:46:02.698Z,97.70
2017-09-29T18:48:36.873Z,97.60
2017-09-29T18:51:25.461Z,98.00
2017-09-29T18:56:47.837Z,99.00
2017-09-29T18:59:20.338Z,99.90
2017-09-29T19:01:46.385Z,99.90
2017-09-29T19:04:12.386Z,99.90
2017-09-29T19:06:41.298Z,99.90
2017-09-29T19:09:11.999Z,99.90
2017-09-29T19:11:45.222Z,99.90
2017-09-29T19:14:11.293Z,99.90
2017-09-29T19:16:48.023Z,99.90
2017-09-29T19:19:17.720Z,99.90
2017-09-29T19:21:52.149Z,99.90
2017-09-29T19:27:36.554Z,99.90
2017-09-29T19:30:03.520Z,99.90
2017-09-29T19:32:47.221Z,99.90
2017-09-29T19:35:28.922Z,99.90
2017-09-29T19:38:05.646Z,99.90
2017-09-29T19:40:43.169Z,99.90
2017-09-29T19:43:30.501Z,99.90
2017-09-29T19:46:07.372Z,99.90
2017-09-29T19:48:50.978Z,99.90
2017-09-29T19:51:20.864Z,99.90
2017-09-29T19:53:55.331Z,99.90
2017-09-29T19:56:21.311Z,99.90
2017-09-29T19:58:51.654Z,99.90
2017-09-29T20:01:18.011Z,99.90
2017-09-29T20:03:44.004Z,99.90
2017-09-29T20:06:12.690Z,99.90
2017-09-29T20:08:39.377Z,99.90
2017-09-29T20:11:05.379Z,99.90
2017-09-29T20:13:35.882Z,99.90
2017-09-29T20:16:01.825Z,99.90
2017-09-29T20:18:28.512Z,99.90
2017-09-29T20:20:54.453Z,99.90
2017-09-29T20:23:21.250Z,99.90
2017-09-29T20:26:02.582Z,99.90
2017-09-29T20:28:44.302Z,99.90
2017-09-29T20:31:30.981Z,99.90
2017-09-29T20:33:57.667Z,99.90
2017-09-29T20:36:28.092Z,99.90
2017-09-29T20:39:05.498Z,99.90
2017-09-29T20:41:36.370Z,99.90
2017-09-29T20:44:09.247Z,99.90
2017-09-29T20:46:48.598Z,99.90
2017-09-29T20:49:25.118Z,99.90
2017-09-29T20:51:52.268Z,99.90
2017-09-29T20:54:18.200Z,99.90
2017-09-29T20:56:57.519Z,99.90
2017-09-29T20:59:44.898Z,99.90
2017-09-29T21:02:11.922Z,99.90
2017-09-29T21:04:37.924Z,99.90
2017-09-29T21:07:13.381Z,99.90
2017-09-29T21:09:43.001Z,99.90
2017-09-29T21:12:30.561Z,99.90
2017-09-29T21:15:01.331Z,99.90
2017-09-29T21:17:38.636Z,99.90
2017-09-29T21:20:05.736Z,99.90
2017-09-29T21:22:38.423Z,99.90
2017-09-29T21:25:08.270Z,99.90
2017-09-29T21:27:36.134Z,99.90
2017-09-29T21:30:14.099Z,99.90
2017-09-29T21:32:40.370Z,99.90
2017-09-29T21:35:33.295Z,99.90
2017-09-29T21:38:08.116Z,99.90
2017-09-29T21:40:38.990Z,99.90
2017-09-29T21:43:11.768Z,99.90
2017-09-29T21:45:42.151Z,99.90
2017-09-29T21:48:13.465Z,99.90
2017-09-29T21:50:50.985Z,99.90
2017-09-29T21:53:23.329Z,99.90
2017-09-29T21:55:55.504Z,99.90
2017-09-29T21:58:25.238Z,99.90
2017-09-29T22:00:57.393Z,99.90
2017-09-29T22:03:30.415Z,99.90
2017-09-29T22:05:57.431Z,99.90
2017-09-29T22:08:28.137Z,99.90
2017-09-29T22:10:57.902Z,99.90
2017-09-29T22:13:30.142Z,99.90
2017-09-29T22:16:12.586Z,99.90
2017-09-29T22:18:38.556Z,99.90
2017-09-29T22:21:25.538Z,99.90
2017-09-29T22:23:58.798Z,99.90
2017-09-29T22:26:26.867Z,99.90
2017-09-29T22:29:03.011Z,99.90
2017-09-29T22:31:29.770Z,99.90
2017-09-29T22:34:00.613Z,99.90
2017-09-29T22:36:35.260Z,99.90
2017-09-29T22:39:12.863Z,99.90
2017-09-29T22:41:44.579Z,99.90
2017-09-29T22:44:22.391Z,99.90
2017-09-29T22:46:52.032Z,99.90
2017-09-29T22:49:22.833Z,99.90
2017-09-29T22:51:48.790Z,99.90
2017-09-29T22:54:14.785Z,99.90
2017-09-29T22:56:48.663Z,99.90
2017-09-29T22:59:27.144Z,99.90
2017-09-29T23:01:55.233Z,99.90
2017-09-29T23:04:27.231Z,99.90
2017-09-29T23:07:04.462Z,99.90
2017-09-29T23:09:30.460Z,99.90
2017-09-29T23:12:01.402Z,99.90
2017-09-29T23:14:38.875Z,99.90
2017-09-29T23:17:05.621Z,99.90
2017-09-29T23:19:43.066Z,99.90
2017-09-29T23:22:11.132Z,99.90
2017-09-29T23:24:47.282Z,99.90
2017-09-29T23:27:23.993Z,99.90
2017-09-29T23:30:01.955Z,99.90
2017-09-29T23:32:39.427Z,99.90
2017-09-29T23:35:05.467Z,99.90
2017-09-29T23:37:32.543Z,99.90
2017-09-29T23:40:00.575Z,99.90
2017-09-29T23:42:39.232Z,99.90
2017-09-29T23:45:09.766Z,99.90
2017-09-29T23:47:37.741Z,99.90
2017-09-29T23:50:03.728Z,99.90
2017-09-29T23:52:33.566Z,99.90
2017-09-29T23:55:00.598Z,99.90
2017-09-29T23:57:27.351Z,99.90
2017-09-29T23:59:57.271Z,99.90
